createdAt,value
2019-03-16T00:00:14.549Z,7.99
2019-03-16T00:05:11.524Z,7.70
2019-03-16T00:10:08.615Z,7.84
2019-03-16T00:15:06.931Z,7.71
2019-03-16T00:20:10.371Z,8.01
2019-03-16T00:25:09.279Z,7.84
2019-03-16T00:30:12.105Z,7.76
2019-03-16T00:35:09.191Z,7.70
2019-03-16T00:40:09.197Z,7.85
2019-03-16T00:45:09.604Z,7.82
2019-03-16T00:50:12.370Z,8.10
2019-03-16T00:55:10.020Z,8.16
2019-03-16T01:00:12.750Z,7.99
2019-03-16T01:05:12.703Z,7.76
2019-03-16T01:10:10.356Z,7.91
2019-03-16T01:15:11.942Z,7.37
2019-03-16T01:20:11.629Z,7.79
2019-03-16T01:25:10.235Z,7.57
2019-03-16T01:30:15.644Z,7.71
2019-03-16T01:35:12.749Z,7.69
2019-03-16T01:40:10.733Z,7.48
2019-03-16T01:45:13.130Z,7.17
2019-03-16T01:50:11.719Z,7.37
2019-03-16T01:55:08.994Z,7.27
2019-03-16T02:00:12.661Z,7.13
2019-03-16T02:05:09.879Z,7.19
2019-03-16T02:10:08.653Z,7.17
2019-03-16T02:15:07.342Z,7.30
2019-03-16T02:20:07.224Z,7.20
2019-03-16T02:25:06.072Z,7.36
2019-03-16T02:30:09.422Z,7.33
2019-03-16T02:35:08.323Z,7.29
2019-03-16T02:40:09.265Z,7.16
2019-03-16T02:45:12.384Z,6.84
2019-03-16T02:50:10.863Z,6.74
2019-03-16T02:55:08.340Z,6.57
2019-03-16T03:00:14.732Z,6.69
2019-03-16T03:05:11.862Z,6.58
2019-03-16T03:10:14.891Z,6.86
2019-03-16T03:15:12.016Z,7.06
2019-03-16T03:20:09.693Z,7.19
2019-03-16T03:25:06.909Z,7.08
2019-03-16T03:30:12.403Z,7.29
2019-03-16T03:35:12.589Z,7.27
2019-03-16T03:40:11.317Z,7.18
2019-03-16T03:45:10.816Z,7.25
2019-03-16T03:50:11.337Z,7.20
2019-03-16T03:55:12.843Z,7.22
2019-03-16T04:00:16.110Z,6.90
2019-03-16T04:05:13.526Z,7.08
2019-03-16T04:10:11.077Z,7.24
2019-03-16T04:15:12.347Z,7.11
2019-03-16T04:20:13.811Z,7.31
2019-03-16T04:25:10.946Z,7.21
2019-03-16T04:30:12.895Z,7.13
2019-03-16T04:35:10.071Z,7.14
2019-03-16T04:40:09.685Z,7.24
2019-03-16T04:45:10.438Z,7.21
2019-03-16T04:50:11.818Z,7.32
2019-03-16T04:55:08.877Z,7.43
2019-03-16T05:00:11.683Z,7.49
2019-03-16T05:05:09.002Z,7.58
2019-03-16T05:10:09.776Z,7.52
2019-03-16T05:15:11.131Z,7.55
2019-03-16T05:20:10.460Z,7.51
2019-03-16T05:25:11.188Z,7.75
2019-03-16T05:30:13.062Z,7.74
2019-03-16T05:35:10.192Z,7.73
2019-03-16T05:40:09.467Z,7.35
2019-03-16T05:45:11.163Z,6.61
2019-03-16T05:50:10.892Z,6.10
2019-03-16T05:55:10.105Z,5.68
2019-03-16T06:00:13.255Z,5.80
2019-03-16T06:05:12.263Z,5.71
2019-03-16T06:10:11.086Z,5.96
2019-03-16T06:15:10.638Z,6.46
2019-03-16T06:20:17.194Z,7.57
2019-03-16T06:25:14.248Z,8.23
2019-03-16T06:30:16.149Z,8.67
2019-03-16T06:35:24.109Z,8.68
2019-03-16T06:40:14.094Z,8.06
2019-03-16T06:45:12.368Z,7.51
2019-03-16T06:50:15.487Z,7.16
2019-03-16T06:55:19.417Z,6.98
2019-03-16T07:00:17.406Z,7.29
2019-03-16T07:05:15.608Z,7.48
2019-03-16T07:10:13.305Z,7.76
2019-03-16T07:15:17.649Z,7.87
2019-03-16T07:20:17.149Z,7.66
2019-03-16T07:25:14.239Z,7.27
2019-03-16T07:30:13.144Z,6.97
2019-03-16T07:35:12.849Z,7.20
2019-03-16T07:40:13.709Z,7.67
2019-03-16T07:45:23.781Z,8.21
2019-03-16T07:50:22.855Z,8.73
2019-03-16T07:55:21.055Z,9.25
2019-03-16T08:00:18.248Z,9.39
2019-03-16T08:05:19.590Z,9.70
2019-03-16T08:10:18.662Z,10.33
2019-03-16T08:15:15.967Z,10.71
2019-03-16T08:20:14.467Z,10.86
2019-03-16T08:25:16.409Z,10.72
2019-03-16T08:30:13.576Z,10.10
2019-03-16T08:35:12.284Z,9.32
2019-03-16T08:40:10.434Z,8.90
2019-03-16T08:45:09.004Z,8.61
2019-03-16T08:50:08.565Z,8.48
2019-03-16T08:55:09.259Z,8.38
2019-03-16T09:00:12.887Z,8.63
2019-03-16T09:05:11.992Z,9.34
2019-03-16T09:10:11.758Z,9.41
2019-03-16T09:15:13.573Z,9.30
2019-03-16T09:20:22.750Z,9.27
2019-03-16T09:25:26.275Z,9.34
2019-03-16T09:30:25.344Z,9.34
2019-03-16T09:35:24.353Z,9.85
2019-03-16T09:40:21.438Z,10.44
2019-03-16T09:45:18.621Z,10.74
2019-03-16T09:50:17.727Z,10.66
2019-03-16T09:55:17.008Z,10.02
2019-03-16T10:00:15.608Z,9.46
2019-03-16T10:05:17.150Z,9.38
2019-03-16T10:10:25.302Z,9.22
2019-03-16T10:15:24.012Z,9.31
2019-03-16T10:20:21.166Z,9.61
2019-03-16T10:25:21.919Z,10.42
2019-03-16T10:30:25.957Z,10.77
2019-03-16T10:35:25.844Z,11.33
2019-03-16T10:40:24.878Z,11.76
2019-03-16T10:45:23.308Z,11.25
2019-03-16T10:50:20.659Z,10.90
2019-03-16T10:55:20.590Z,10.51
2019-03-16T11:00:22.166Z,10.16
2019-03-16T11:05:19.411Z,10.60
2019-03-16T11:10:18.440Z,10.54
2019-03-16T11:15:17.304Z,10.59
2019-03-16T11:20:16.361Z,10.18
2019-03-16T11:25:13.601Z,10.49
2019-03-16T11:30:18.487Z,10.88
2019-03-16T11:35:20.194Z,11.12
2019-03-16T11:40:18.065Z,11.23
2019-03-16T11:45:17.052Z,11.65
2019-03-16T11:50:19.982Z,11.65
2019-03-16T11:55:17.608Z,11.52
2019-03-16T12:00:15.060Z,10.95
2019-03-16T12:05:14.178Z,10.82
2019-03-16T12:10:14.711Z,10.46
2019-03-16T12:15:13.281Z,10.76
2019-03-16T12:20:18.059Z,11.03
2019-03-16T12:25:14.464Z,11.19
2019-03-16T12:30:13.702Z,10.98
2019-03-16T12:35:12.830Z,10.81
2019-03-16T12:40:14.056Z,10.51
2019-03-16T12:45:15.090Z,10.39
2019-03-16T12:50:15.084Z,10.10
2019-03-16T12:55:12.432Z,10.16
2019-03-16T13:00:16.037Z,10.81
2019-03-16T13:05:15.194Z,10.59
2019-03-16T13:10:21.615Z,10.29
2019-03-16T13:15:21.505Z,10.46
2019-03-16T13:20:18.644Z,10.64
2019-03-16T13:25:19.459Z,10.72
2019-03-16T13:30:27.079Z,10.85
2019-03-16T13:35:25.557Z,10.79
2019-03-16T13:40:22.721Z,10.61
2019-03-16T13:45:20.672Z,10.52
2019-03-16T13:50:19.471Z,10.25
2019-03-16T13:55:18.995Z,10.42
2019-03-16T14:00:19.880Z,10.33
2019-03-16T14:05:18.989Z,10.29
2019-03-16T14:10:24.866Z,10.53
2019-03-16T14:15:21.955Z,10.38
2019-03-16T14:20:22.751Z,10.50
2019-03-16T14:25:20.801Z,10.57
2019-03-16T14:30:39.283Z,10.63
2019-03-16T14:35:21.397Z,10.52
2019-03-16T14:40:19.526Z,10.41
2019-03-16T14:45:17.895Z,10.35
2019-03-16T14:50:21.341Z,10.26
2019-03-16T14:55:18.464Z,10.42
2019-03-16T15:00:20.525Z,10.45
2019-03-16T15:05:17.700Z,10.39
2019-03-16T15:10:19.749Z,10.58
2019-03-16T15:15:18.891Z,10.56
2019-03-16T15:20:16.277Z,10.48
2019-03-16T15:25:15.376Z,10.35
2019-03-16T15:30:21.518Z,10.51
2019-03-16T15:35:18.630Z,10.27
2019-03-16T15:40:17.663Z,10.34
2019-03-16T15:45:21.271Z,10.37
2019-03-16T15:50:18.987Z,10.34
2019-03-16T15:55:23.219Z,10.29
2019-03-16T16:00:24.876Z,10.06
2019-03-16T16:05:24.573Z,10.00
2019-03-16T16:10:23.321Z,9.89
2019-03-16T16:15:20.558Z,9.75
2019-03-16T16:20:18.523Z,9.68
2019-03-16T16:25:21.313Z,9.65
2019-03-16T16:30:20.670Z,9.73
2019-03-16T16:35:17.919Z,9.66
2019-03-16T16:45:46.889Z,9.55
2019-03-16T16:50:49.223Z,9.43
2019-03-16T16:55:46.367Z,9.34
2019-03-16T17:00:46.548Z,9.24
2019-03-16T17:05:52.926Z,9.27
2019-03-16T17:10:51.932Z,9.24
2019-03-16T17:16:08.759Z,9.22
2019-03-16T17:21:05.892Z,8.95
2019-03-16T17:26:02.940Z,8.84
2019-03-16T17:31:05.008Z,8.71
2019-03-16T17:36:02.059Z,8.62
2019-03-16T17:41:01.238Z,8.44
2019-03-16T17:46:00.552Z,8.27
2019-03-16T17:50:58.144Z,8.07
2019-03-16T17:55:56.949Z,8.14
2019-03-16T18:00:54.063Z,8.11
2019-03-16T18:05:51.231Z,8.00
2019-03-16T18:10:48.348Z,7.92
2019-03-16T18:15:45.437Z,7.80
2019-03-16T18:20:51.438Z,7.75
2019-03-16T18:25:48.438Z,7.69
2019-03-16T18:30:47.041Z,7.64
2019-03-16T18:35:44.053Z,7.52
2019-03-16T18:40:41.156Z,7.39
2019-03-16T18:45:38.221Z,7.30
2019-03-16T18:50:35.406Z,7.15
2019-03-16T18:55:33.221Z,7.03
2019-03-16T19:00:30.308Z,6.85
2019-03-16T19:05:30.763Z,6.75
2019-03-16T19:10:27.993Z,6.62
2019-03-16T19:15:25.005Z,6.51
2019-03-16T19:20:22.427Z,6.57
2019-03-16T19:25:22.368Z,6.44
2019-03-16T19:30:19.754Z,6.33
2019-03-16T19:35:18.377Z,6.12
2019-03-16T19:40:20.505Z,6.00
2019-03-16T19:45:17.708Z,5.80
2019-03-16T19:50:16.090Z,5.74
2019-03-16T19:55:13.854Z,5.68
2019-03-16T20:00:16.370Z,5.60
2019-03-16T20:05:15.441Z,5.55
2019-03-16T20:10:18.459Z,5.52
2019-03-16T20:15:16.025Z,5.49
2019-03-16T20:20:16.698Z,5.56
2019-03-16T20:25:14.116Z,5.51
2019-03-16T20:30:25.838Z,5.48
2019-03-16T20:35:17.247Z,5.37
2019-03-16T20:40:17.019Z,5.37
2019-03-16T20:45:14.364Z,5.23
2019-03-16T20:50:15.103Z,5.15
2019-03-16T20:55:12.595Z,5.02
2019-03-16T21:00:17.848Z,5.02
2019-03-16T21:05:14.980Z,5.05
2019-03-16T21:10:13.857Z,5.08
2019-03-16T21:15:15.452Z,5.21
2019-03-16T21:20:17.234Z,5.23
2019-03-16T21:25:16.064Z,5.39
2019-03-16T21:30:16.166Z,5.31
2019-03-16T21:35:13.259Z,5.42
2019-03-16T21:40:15.023Z,5.55
2019-03-16T21:45:13.385Z,5.50
2019-03-16T21:50:13.719Z,5.50
2019-03-16T21:55:12.267Z,5.56
2019-03-16T22:00:17.312Z,5.55
2019-03-16T22:05:14.385Z,5.56
2019-03-16T22:10:16.543Z,5.65
2019-03-16T22:15:15.021Z,5.59
2019-03-16T22:20:17.884Z,5.69
2019-03-16T22:25:14.972Z,5.72
2019-03-16T22:30:16.141Z,5.79
2019-03-16T22:35:13.236Z,5.83
2019-03-16T22:40:11.857Z,5.87
2019-03-16T22:45:13.120Z,5.83
2019-03-16T22:50:14.507Z,5.88
2019-03-16T22:55:11.581Z,5.92
2019-03-16T23:00:23.143Z,6.08
2019-03-16T23:05:20.299Z,6.24
2019-03-16T23:10:20.258Z,6.48
2019-03-16T23:15:17.477Z,6.75
2019-03-16T23:20:14.573Z,6.79
2019-03-16T23:25:11.562Z,7.03
2019-03-16T23:30:12.244Z,7.13
2019-03-16T23:35:11.045Z,7.29
2019-03-16T23:40:12.779Z,7.47
2019-03-16T23:45:12.250Z,7.49
2019-03-16T23:50:11.894Z,7.52
2019-03-16T23:55:09.302Z,7.64
